Time;durP1;ratioP1;P1;durP2;ratioP2;P2;SDS_P1;SDS_P2;PMS_P1;PMS_P2;Temp;Humidity;BMP_temperature;BMP_pressure;BME280_temperature;BME280_humidity;BME280_pressure;Samples;Min_cycle;Max_cycle;Signal;HPM_P1;HPM_P2
2022/08/07 00:00:58;;;;;;;5.38;3.58;;;;;;;16.48;61.19;102602.59;5047619;28;20037;-59
2022/08/07 00:03:25;;;;;;;4.82;3.28;;;;;;;16.47;61.47;102603.47;5039804;28;20033;-60
2022/08/07 00:05:51;;;;;;;5.95;3.92;;;;;;;16.42;61.37;102599.78;5026986;28;20025;-59
2022/08/07 00:08:18;;;;;;;4.75;3.63;;;;;;;16.37;61.75;102601.41;5049057;28;20060;-60
2022/08/07 00:10:43;;;;;;;5.35;3.80;;;;;;;16.33;61.84;102600.44;5027068;28;20108;-60
2022/08/07 00:13:10;;;;;;;6.43;4.20;;;;;;;16.30;61.44;102598.59;5046595;28;20124;-60
2022/08/07 00:15:35;;;;;;;6.07;3.90;;;;;;;16.27;61.68;102600.25;5048107;28;20028;-60
2022/08/07 00:18:00;;;;;;;6.07;4.10;;;;;;;16.24;61.86;102590.53;5050309;28;20037;-60
2022/08/07 00:20:26;;;;;;;6.68;3.97;;;;;;;16.22;61.99;102601.84;5048431;28;20525;-60
2022/08/07 00:22:51;;;;;;;5.10;3.80;;;;;;;16.16;61.62;102592.97;5045635;28;20501;-60
2022/08/07 00:25:16;;;;;;;6.47;4.38;;;;;;;16.16;61.51;102592.06;5049597;28;20203;-60
2022/08/07 00:27:42;;;;;;;5.95;3.97;;;;;;;16.12;62.04;102591.09;5048601;28;20064;-60
2022/08/07 00:30:08;;;;;;;5.75;4.35;;;;;;;16.11;63.02;102586.66;5037251;28;20033;-60
2022/08/07 00:32:33;;;;;;;6.68;4.18;;;;;;;16.10;62.72;102576.97;5043395;28;20037;-61
2022/08/07 00:34:59;;;;;;;5.78;4.13;;;;;;;16.05;63.42;102585.59;5044942;28;20033;-60
2022/08/07 00:37:25;;;;;;;7.47;4.72;;;;;;;16.03;62.95;102585.53;5046614;28;20028;-60
2022/08/07 00:39:52;;;;;;;5.68;4.00;;;;;;;16.01;62.73;102576.72;5048051;28;20041;-59
2022/08/07 00:42:18;;;;;;;6.25;4.32;;;;;;;16.01;62.10;102575.84;5027644;28;20076;-60
2022/08/07 00:44:44;;;;;;;6.22;4.18;;;;;;;15.96;62.31;102570.44;5046497;28;20028;-60
2022/08/07 00:47:09;;;;;;;6.72;4.13;;;;;;;15.94;62.37;102569.50;5036870;28;20397;-60
2022/08/07 00:49:34;;;;;;;5.93;3.95;;;;;;;15.92;62.24;102572.09;5047958;28;20160;-60
2022/08/07 00:52:00;;;;;;;6.80;3.92;;;;;;;15.84;62.54;102567.47;5049995;28;20131;-60
2022/08/07 00:54:25;;;;;;;7.90;4.50;;;;;;;15.79;62.64;102573.47;5048581;28;20078;-60
2022/08/07 00:56:50;;;;;;;5.55;4.15;;;;;;;15.77;62.48;102561.09;5044534;28;20017;-59
2022/08/07 00:59:17;;;;;;;6.00;4.30;;;;;;;15.72;62.84;102560.06;5038653;28;20060;-60
2022/08/07 01:01:43;;;;;;;6.45;4.30;;;;;;;15.68;63.33;102564.34;5042970;28;20031;-60
2022/08/07 01:04:09;;;;;;;6.72;4.40;;;;;;;15.69;62.90;102562.63;5044996;28;20120;-60
2022/08/07 01:06:35;;;;;;;7.68;4.22;;;;;;;15.66;62.79;102555.53;5044317;28;20115;-61
2022/08/07 01:09:01;;;;;;;5.88;4.00;;;;;;;15.62;63.27;102557.16;5039228;28;20123;-61
2022/08/07 01:11:28;;;;;;;6.95;4.60;;;;;;;15.58;63.90;102557.03;5048693;28;20025;-60
2022/08/07 01:13:54;;;;;;;6.47;4.47;;;;;;;15.48;63.21;102559.38;5039912;28;20112;-61
2022/08/07 01:16:19;;;;;;;6.43;4.28;;;;;;;15.43;63.46;102560.06;5039841;28;20024;-61
2022/08/07 01:18:45;;;;;;;6.38;4.10;;;;;;;15.41;64.03;102557.41;5046187;28;20024;-60
2022/08/07 01:21:23;;;;;;;6.45;4.25;;;;;;;15.41;63.50;102551.25;5049507;28;20033;-59
2022/08/07 01:23:50;;;;;;;7.35;4.53;;;;;;;15.38;64.00;102551.16;5048250;28;20032;-60
2022/08/07 01:26:19;;;;;;;6.40;4.57;;;;;;;15.34;64.32;102544.00;5043301;28;20503;-60
2022/08/07 01:28:47;;;;;;;6.72;4.35;;;;;;;15.33;64.55;102548.38;5047501;28;20021;-59
2022/08/07 01:31:14;;;;;;;8.77;4.78;;;;;;;15.28;64.96;102544.75;5040446;28;20570;-60
2022/08/07 01:33:40;;;;;;;7.47;4.93;;;;;;;15.26;63.60;102535.91;5047395;28;20033;-60
2022/08/07 01:36:08;;;;;;;5.20;3.88;;;;;;;15.24;63.63;102540.22;5046565;28;20033;-59
2022/08/07 01:38:34;;;;;;;7.05;4.90;;;;;;;15.20;64.63;102539.22;5036450;28;20329;-59
2022/08/07 01:41:01;;;;;;;6.82;4.57;;;;;;;15.16;64.61;102539.09;5044901;28;20308;-60
2022/08/07 01:43:28;;;;;;;9.20;5.00;;;;;;;15.10;65.17;102532.78;5043522;28;20025;-60
2022/08/07 01:45:55;;;;;;;7.18;4.95;;;;;;;15.10;64.89;102534.53;5044323;28;20028;-59
2022/08/07 01:48:21;;;;;;;6.00;4.25;;;;;;;15.09;64.42;102533.66;5038351;28;20115;-59
2022/08/07 01:50:52;;;;;;;5.38;3.85;;;;;;;15.04;63.14;102540.47;5040433;28;20025;-60
2022/08/07 01:53:20;;;;;;;6.60;3.80;;;;;;;14.99;62.88;102530.66;5046447;28;20111;-60
2022/08/07 01:55:49;;;;;;;8.07;4.63;;;;;;;14.97;63.76;102533.22;5040204;28;20108;-60
2022/08/07 01:58:18;;;;;;;6.73;4.77;;;;;;;14.94;64.13;102528.75;5039074;28;20126;-60
2022/08/07 02:00:45;;;;;;;;;;;;;;;15.03;62.38;102532.53;5045369;28;20092;-60
2022/08/07 02:03:14;;;;;;;7.60;5.20;;;;;;;14.92;65.26;102529.59;5044910;28;19990;-60
2022/08/07 02:05:57;;;;;;;7.70;5.30;;;;;;;14.89;64.90;102525.13;5048248;28;20025;-60
2022/08/07 02:08:25;;;;;;;7.07;4.80;;;;;;;14.84;64.72;102525.81;5044686;28;20106;-60
2022/08/07 02:10:52;;;;;;;8.02;5.13;;;;;;;14.80;65.19;102534.41;5047781;28;20495;-60
2022/08/07 02:13:20;;;;;;;6.60;4.70;;;;;;;14.72;65.15;102529.78;5043564;28;20035;-60
2022/08/07 02:15:47;;;;;;;7.47;4.70;;;;;;;14.68;64.94;102529.66;5045206;28;20172;-59
2022/08/07 02:18:14;;;;;;;6.25;4.50;;;;;;;14.64;64.88;102525.13;5044517;28;20287;-61
2022/08/07 02:20:41;;;;;;;6.30;4.60;;;;;;;14.56;65.61;102520.47;5037518;28;20005;-60
2022/08/07 02:23:07;;;;;;;7.60;5.22;;;;;;;14.55;65.65;102528.31;5042638;28;20033;-61
2022/08/07 02:25:35;;;;;;;7.03;4.93;;;;;;;14.52;66.09;102523.84;5047572;28;20413;-60
2022/08/07 02:28:02;;;;;;;8.05;5.50;;;;;;;14.52;65.88;102513.34;5037944;28;20036;-61
2022/08/07 02:30:29;;;;;;;6.80;4.28;;;;;;;14.47;64.27;102520.19;5045896;28;20027;-60
2022/08/07 02:32:56;;;;;;;6.90;4.40;;;;;;;14.44;64.37;102525.31;5046693;28;20833;-60
2022/08/07 02:35:23;;;;;;;7.05;4.40;;;;;;;14.46;64.22;102517.50;5051357;28;20036;-60
2022/08/07 02:37:51;;;;;;;6.03;3.95;;;;;;;14.43;63.50;102519.16;5043709;28;20476;-60
2022/08/07 02:40:17;;;;;;;6.55;4.10;;;;;;;14.42;63.71;102514.78;5050513;28;20040;-60
2022/08/07 02:42:43;;;;;;;6.20;4.50;;;;;;;14.41;63.93;102513.00;5045846;28;20099;-60
2022/08/07 02:45:13;;;;;;;6.68;4.82;;;;;;;14.38;64.08;102507.66;5047841;28;20424;-59
2022/08/07 02:47:39;;;;;;;7.50;5.05;;;;;;;14.34;64.71;102511.00;5039366;28;20028;-59
2022/08/07 02:50:06;;;;;;;6.45;4.88;;;;;;;14.31;64.93;102508.28;5049491;28;20043;-60
2022/08/07 02:52:37;;;;;;;7.35;4.95;;;;;;;14.28;64.77;102502.91;5041199;28;20636;-59
2022/08/07 02:55:11;;;;;;;8.38;5.07;;;;;;;14.26;65.51;102501.97;5042877;28;20025;-60
2022/08/07 02:57:38;;;;;;;7.25;4.97;;;;;;;14.21;65.76;102507.03;5047180;28;20033;-59
2022/08/07 03:00:05;;;;;;;7.13;5.07;;;;;;;14.17;65.97;102510.38;5049679;28;20039;-59
2022/08/07 03:02:34;;;;;;;6.63;4.72;;;;;;;14.12;65.61;102504.09;5049885;28;20032;-60
2022/08/07 03:05:01;;;;;;;7.40;5.17;;;;;;;14.08;66.13;102503.09;5052143;28;20144;-61
2022/08/07 03:07:27;;;;;;;7.85;5.32;;;;;;;14.07;66.66;102503.03;5047480;28;20063;-61
2022/08/07 03:09:53;;;;;;;7.88;5.38;;;;;;;14.03;67.55;102495.91;5050936;28;20603;-60
2022/08/07 03:12:19;;;;;;;11.00;5.80;;;;;;;14.01;67.88;102503.72;5046528;28;20104;-60
2022/08/07 03:14:45;;;;;;;6.00;4.57;;;;;;;14.01;66.07;102505.44;5044886;28;20116;-60
2022/08/07 03:17:11;;;;;;;7.38;5.13;;;;;;;13.97;66.13;102507.03;5045208;28;20496;-60
2022/08/07 03:19:37;;;;;;;7.47;5.07;;;;;;;13.96;66.19;102501.75;5049649;28;20033;-59
2022/08/07 03:22:05;;;;;;;7.22;4.90;;;;;;;13.91;66.03;102499.84;5042592;28;20029;-59
2022/08/07 03:24:31;;;;;;;7.95;5.35;;;;;;;13.91;66.80;102501.59;5024117;28;20356;-60
2022/08/07 03:27:01;;;;;;;7.32;5.22;;;;;;;13.87;66.40;102510.16;5046441;28;20061;-60
2022/08/07 03:29:34;;;;;;;7.72;5.53;;;;;;;13.82;66.97;102501.25;5047770;28;20106;-60
2022/08/07 03:32:04;;;;;;;8.70;5.45;;;;;;;13.79;67.15;102502.03;5049080;28;20055;-60
2022/08/07 03:34:31;;;;;;;6.90;5.22;;;;;;;13.76;67.68;102501.94;5050588;28;20036;-60
2022/08/07 03:37:01;;;;;;;7.78;5.72;;;;;;;13.73;67.64;102502.69;5046673;28;20029;-60
2022/08/07 03:39:30;;;;;;;8.85;5.75;;;;;;;13.70;68.17;102502.59;5050763;28;20079;-60
2022/08/07 03:41:56;;;;;;;7.72;5.60;;;;;;;13.71;67.63;102504.34;5047602;28;20075;-60
2022/08/07 03:44:22;;;;;;;10.45;5.53;;;;;;;13.70;67.89;102505.22;5019044;28;20081;-60
2022/08/07 03:46:48;;;;;;;8.45;5.80;;;;;;;13.68;67.94;102496.38;5038705;28;20040;-59
2022/08/07 03:49:14;;;;;;;8.10;6.28;;;;;;;13.68;68.63;102504.25;5051231;28;20029;-60
2022/08/07 03:51:41;;;;;;;8.50;6.20;;;;;;;13.64;68.86;102501.47;5027694;28;20025;-60
2022/08/07 03:54:07;;;;;;;9.10;5.80;;;;;;;13.64;67.37;102502.34;5046006;28;20033;-60
2022/08/07 03:56:35;;;;;;;7.63;5.20;;;;;;;13.65;66.49;102508.50;5048926;28;20031;-60
2022/08/07 03:59:04;;;;;;;7.85;4.88;;;;;;;13.58;66.54;102512.59;5049550;28;20117;-60
2022/08/07 04:01:31;;;;;;;7.03;5.00;;;;;;;13.51;66.30;102510.56;5040944;28;20051;-60
2022/08/07 04:03:56;;;;;;;6.38;4.90;;;;;;;13.41;67.09;102516.28;5048050;28;20151;-60
2022/08/07 04:06:23;;;;;;;8.40;5.10;;;;;;;13.39;66.99;102514.50;5045100;28;20528;-60
2022/08/07 04:08:49;;;;;;;7.90;5.30;;;;;;;13.34;68.03;102523.00;5045130;28;20017;-60
2022/08/07 04:11:14;;;;;;;8.70;5.72;;;;;;;13.31;67.96;102523.75;5048826;28;20099;-60
2022/08/07 04:13:40;;;;;;;8.10;5.57;;;;;;;13.30;68.09;102519.34;5045707;28;20127;-60
2022/08/07 04:16:06;;;;;;;8.40;5.65;;;;;;;13.30;68.19;102519.34;5022830;28;20029;-60
2022/08/07 04:18:31;;;;;;;7.85;5.70;;;;;;;13.26;67.51;102519.19;5049684;28;20162;-60
2022/08/07 04:20:57;;;;;;;7.35;5.10;;;;;;;13.24;67.50;102526.97;5049617;28;20022;-60
2022/08/07 04:23:24;;;;;;;7.80;5.32;;;;;;;13.18;67.70;102522.38;5049464;28;20025;-60
2022/08/07 04:25:51;;;;;;;8.02;5.57;;;;;;;13.13;68.43;102525.66;5044829;28;20035;-59
2022/08/07 04:28:17;;;;;;;8.63;5.68;;;;;;;13.13;67.89;102529.13;5030953;28;20036;-60
2022/08/07 04:30:47;;;;;;;7.50;5.70;;;;;;;13.12;68.42;102527.38;5047836;28;20075;-59
2022/08/07 04:33:13;;;;;;;8.15;5.68;;;;;;;13.10;68.60;102528.13;5048773;28;20033;-59
2022/08/07 04:35:40;;;;;;;8.57;6.10;;;;;;;13.10;68.88;102534.25;5046179;28;20102;-59
2022/08/07 04:38:09;;;;;;;9.05;5.82;;;;;;;13.09;69.19;102534.19;5048091;28;20558;-59
2022/08/07 04:40:39;;;;;;;9.82;6.45;;;;;;;13.09;69.64;102534.19;5048969;28;20084;-60
2022/08/07 04:43:04;;;;;;;8.23;6.28;;;;;;;13.11;69.90;102528.19;5045780;28;21149;-59
2022/08/07 04:46:08;;;;;;;9.13;6.35;;;;;;;13.10;69.33;102526.41;5048296;28;20032;-58
2022/08/07 04:48:40;;;;;;;9.65;7.00;;;;;;;13.11;69.96;102522.97;5048760;28;20028;-59
2022/08/07 04:51:18;;;;;;;8.13;5.88;;;;;;;13.11;69.93;102532.56;5048833;28;20043;-59
2022/08/07 04:53:51;;;;;;;9.68;6.32;;;;;;;13.11;70.20;102532.56;5048014;28;20040;-59
2022/08/07 04:56:39;;;;;;;8.75;6.68;;;;;;;13.11;70.29;102532.56;5048375;28;20029;-59
2022/08/07 04:59:13;;;;;;;9.45;6.65;;;;;;;13.11;70.68;102537.78;5046909;28;20088;-60
2022/08/07 05:02:07;;;;;;;10.32;6.80;;;;;;;13.13;69.84;102533.50;5042336;28;20025;-60
2022/08/07 05:05:11;;;;;;;10.63;7.22;;;;;;;13.13;70.24;102536.09;5038581;28;20083;-60
2022/08/07 05:07:46;;;;;;;10.80;6.90;;;;;;;13.13;71.01;102538.72;5021081;28;20123;-60
2022/08/07 05:10:22;;;;;;;9.40;7.22;;;;;;;13.14;71.39;102536.16;5046434;28;20442;-60
2022/08/07 05:13:11;;;;;;;12.38;7.60;;;;;;;13.18;70.56;102537.22;5048622;28;20040;-61
2022/08/07 05:15:40;;;;;;;10.38;7.43;;;;;;;13.19;71.72;102546.81;5035593;28;20516;-60
2022/08/07 05:18:11;;;;;;;11.90;7.43;;;;;;;13.19;72.34;102549.44;5046153;28;20033;-60
2022/08/07 05:20:39;;;;;;;11.13;7.75;;;;;;;13.20;72.96;102546.00;5044827;28;20111;-60
2022/08/07 05:23:11;;;;;;;11.63;8.27;;;;;;;13.20;74.20;102556.47;5042823;28;20036;-61
2022/08/07 05:25:40;;;;;;;12.40;7.85;;;;;;;13.24;73.38;102553.16;5047813;28;20048;-60
2022/08/07 05:28:08;;;;;;;11.57;8.13;;;;;;;13.25;73.56;102549.69;5040837;28;20052;-60
2022/08/07 05:30:35;;;;;;;13.80;8.90;;;;;;;13.27;74.04;102557.63;5045842;28;20025;-60
2022/08/07 05:33:03;;;;;;;13.90;9.02;;;;;;;13.28;73.99;102548.91;5043303;28;20079;-60
2022/08/07 05:35:32;;;;;;;10.82;7.90;;;;;;;13.31;74.28;102555.19;5046451;28;20021;-60
2022/08/07 05:37:59;;;;;;;13.55;8.50;;;;;;;13.35;73.53;102551.88;5045636;28;20029;-61
2022/08/07 05:40:25;;;;;;;14.13;8.52;;;;;;;13.35;74.11;102559.75;5046205;28;20099;-60
2022/08/07 05:42:51;;;;;;;13.32;8.88;;;;;;;13.40;74.49;102562.53;5038061;28;20029;-60
2022/08/07 05:45:18;;;;;;;12.82;8.43;;;;;;;13.42;74.81;102553.00;5046679;28;20480;-60
2022/08/07 05:47:43;;;;;;;15.65;9.05;;;;;;;13.46;74.93;102554.03;5049125;28;20460;-61
2022/08/07 05:50:09;;;;;;;13.40;9.13;;;;;;;13.47;75.03;102551.47;5048931;28;20132;-60
2022/08/07 05:52:34;;;;;;;14.13;9.38;;;;;;;13.51;75.24;102552.47;5043793;28;20033;-60
2022/08/07 05:55:00;;;;;;;15.63;9.48;;;;;;;13.53;75.21;102556.94;5037004;28;20060;-59
2022/08/07 05:57:28;;;;;;;13.30;8.95;;;;;;;13.56;75.68;102559.69;5031055;28;20429;-60
2022/08/07 05:59:55;;;;;;;14.70;9.50;;;;;;;13.60;75.57;102558.09;5043033;28;20049;-60
2022/08/07 06:02:23;;;;;;;14.63;9.35;;;;;;;13.64;74.84;102562.59;5045051;28;20248;-60
2022/08/07 06:04:54;;;;;;;15.60;10.18;;;;;;;13.66;75.43;102563.56;5052905;28;20032;-60
2022/08/07 06:07:19;;;;;;;16.70;9.85;;;;;;;13.69;75.09;102566.28;5043428;28;20061;-60
2022/08/07 06:09:46;;;;;;;15.95;10.15;;;;;;;13.74;75.16;102569.06;5051297;28;20447;-61
2022/08/07 06:12:13;;;;;;;15.07;9.52;;;;;;;13.76;74.60;102563.88;5049451;28;20043;-60
2022/08/07 06:14:38;;;;;;;17.55;10.90;;;;;;;13.81;75.48;102567.59;5052141;28;20029;-60
2022/08/07 06:17:05;;;;;;;16.15;10.13;;;;;;;13.83;75.21;102568.53;5042570;28;20120;-61
2022/08/07 06:19:31;;;;;;;16.80;10.48;;;;;;;13.87;75.77;102562.56;5046484;28;20024;-61
2022/08/07 06:21:57;;;;;;;16.85;11.13;;;;;;;13.92;75.06;102566.28;5048923;28;20115;-61
2022/08/07 06:24:22;;;;;;;15.98;11.05;;;;;;;13.97;75.30;102572.56;5050698;28;20047;-61
2022/08/07 06:26:48;;;;;;;19.80;10.98;;;;;;;14.00;75.40;102569.19;5046086;28;20036;-61
2022/08/07 06:29:13;;;;;;;19.38;11.77;;;;;;;14.07;75.39;102568.56;5047736;28;20095;-61
2022/08/07 06:31:39;;;;;;;16.75;11.18;;;;;;;14.12;74.84;102576.59;5047960;28;20052;-61
2022/08/07 06:34:04;;;;;;;19.85;11.60;;;;;;;14.16;75.41;102562.78;5045788;28;20037;-61
2022/08/07 06:36:29;;;;;;;18.50;11.32;;;;;;;14.21;75.26;102569.97;5048505;28;20502;-60
2022/08/07 06:38:55;;;;;;;21.05;11.73;;;;;;;14.26;75.20;102564.88;5046985;28;20389;-60
2022/08/07 06:41:39;;;;;;;19.63;11.40;;;;;;;14.33;74.46;102569.50;5048727;28;21134;-60
2022/08/07 06:44:05;;;;;;;23.80;11.98;;;;;;;14.38;74.00;102565.34;5046321;28;20029;-61
2022/08/07 06:46:31;;;;;;;21.55;12.40;;;;;;;14.44;74.74;102556.81;5047119;28;20408;-61
2022/08/07 06:48:56;;;;;;;24.45;12.38;;;;;;;14.51;74.53;102561.41;5048675;28;20503;-61
2022/08/07 06:51:27;;;;;;;21.67;12.13;;;;;;;14.59;74.48;102557.31;5051154;28;20033;-61
2022/08/07 06:53:55;;;;;;;24.10;12.50;;;;;;;14.65;73.29;102555.78;5048488;28;20024;-60
2022/08/07 06:56:38;;;;;;;23.42;12.77;;;;;;;14.72;72.68;102556.03;5030695;28;20037;-61
2022/08/07 06:59:09;;;;;;;24.60;12.43;;;;;;;14.77;72.08;102546.59;5049967;28;20033;-60
2022/08/07 07:01:36;;;;;;;27.33;13.80;;;;;;;14.86;72.38;102545.09;5047969;28;20373;-60
2022/08/07 07:04:04;;;;;;;22.65;12.23;;;;;;;14.93;72.12;102544.47;5050047;28;20029;-60
2022/08/07 07:06:31;;;;;;;23.48;12.70;;;;;;;15.00;72.26;102548.19;5049456;28;20025;-60
2022/08/07 07:09:18;;;;;;;26.17;12.85;;;;;;;15.08;71.26;102550.22;5049990;28;20569;-60
2022/08/07 07:12:05;;;;;;;23.98;12.82;;;;;;;15.16;70.97;102549.59;5048440;28;20028;-61
2022/08/07 07:14:51;;;;;;;26.08;12.90;;;;;;;15.24;70.40;102555.97;5042554;28;20025;-61
2022/08/07 07:17:29;;;;;;;24.38;12.98;;;;;;;15.29;70.98;102565.78;5046503;28;20021;-60
2022/08/07 07:19:58;;;;;;;22.80;12.57;;;;;;;15.38;70.38;102559.03;5038531;28;20017;-60
2022/08/07 07:22:26;;;;;;;29.08;13.15;;;;;;;15.45;69.86;102553.13;5050316;28;20108;-60
2022/08/07 07:24:52;;;;;;;28.92;14.18;;;;;;;15.52;69.16;102559.47;5042432;28;20040;-59
2022/08/07 07:27:21;;;;;;;25.70;13.25;;;;;;;15.58;69.41;102552.69;5040419;28;20566;-60
2022/08/07 07:29:50;;;;;;;29.63;14.27;;;;;;;15.66;68.83;102558.16;5039406;28;20397;-61
2022/08/07 07:32:17;;;;;;;26.33;13.38;;;;;;;15.71;69.09;102551.28;5043555;28;20634;-61
2022/08/07 07:34:48;;;;;;;26.08;13.40;;;;;;;15.83;68.27;102553.44;5037243;28;20123;-60
2022/08/07 07:37:15;;;;;;;26.73;13.27;;;;;;;15.89;67.94;102555.31;5044242;28;20099;-61
2022/08/07 07:39:41;;;;;;;27.90;13.25;;;;;;;15.93;67.86;102550.22;5046767;28;20056;-60
2022/08/07 07:42:09;;;;;;;26.73;13.60;;;;;;;15.99;67.93;102542.50;5045079;28;20104;-60
2022/08/07 07:44:38;;;;;;;29.83;12.63;;;;;;;16.07;68.45;102537.47;5022988;28;20593;-60
2022/08/07 07:47:05;;;;;;;;;;;;;;;16.17;68.26;102535.97;5043138;28;20056;-60
2022/08/07 07:49:33;;;;;;;28.25;13.43;;;;;;;16.23;68.50;102535.25;5037771;28;19916;-60
2022/08/07 07:52:01;;;;;;;30.20;13.77;;;;;;;16.31;67.87;102529.38;5037125;28;20033;-60
2022/08/07 07:54:27;;;;;;;28.13;14.13;;;;;;;16.35;67.71;102525.06;5034760;28;20069;-60
2022/08/07 07:56:55;;;;;;;28.38;13.55;;;;;;;16.46;67.13;102525.34;5046305;28;20060;-60
2022/08/07 07:59:21;;;;;;;29.13;13.23;;;;;;;16.50;66.94;102517.56;5040323;28;20017;-60
2022/08/07 08:01:49;;;;;;;28.23;12.48;;;;;;;16.58;66.54;102525.66;5040139;28;20317;-59
2022/08/07 08:04:17;;;;;;;26.45;12.73;;;;;;;16.64;67.06;102522.31;5043124;28;20032;-60
2022/08/07 08:06:44;;;;;;;23.23;12.02;;;;;;;16.73;67.53;102525.19;5039813;28;20116;-62
2022/08/07 08:09:11;;;;;;;26.98;12.40;;;;;;;16.82;65.85;102532.41;5037096;28;20028;-60
2022/08/07 08:11:37;;;;;;;25.02;12.73;;;;;;;16.90;67.13;102530.91;5038806;28;20108;-61
2022/08/07 08:14:02;;;;;;;23.67;12.27;;;;;;;16.98;65.71;102529.34;5022675;28;20108;-60
2022/08/07 08:16:33;;;;;;;25.80;12.07;;;;;;;17.07;66.10;102528.66;5022737;28;20549;-60
2022/08/07 08:19:01;;;;;;;23.58;11.65;;;;;;;17.14;65.98;102535.84;5037648;28;20030;-60
2022/08/07 08:27:05;;;;;;;27.90;13.20;;;;;;;17.43;65.06;102526.84;5041815;28;20166;-60
2022/08/07 08:29:39;;;;;;;26.30;12.80;;;;;;;17.52;65.47;102529.69;5022969;28;20036;-60
2022/08/07 08:32:05;;;;;;;25.08;11.73;;;;;;;17.61;62.77;102534.25;5039269;28;20056;-60
2022/08/07 08:34:32;;;;;;;20.88;10.07;;;;;;;17.66;62.43;102530.00;5040248;28;20104;-60
2022/08/07 08:37:01;;;;;;;26.20;12.05;;;;;;;17.78;64.16;102538.13;5025034;28;20546;-60
2022/08/07 08:39:27;;;;;;;23.08;12.00;;;;;;;17.86;63.34;102533.03;5045490;28;20070;-60
2022/08/07 08:42:02;;;;;;;24.33;11.85;;;;;;;17.96;63.70;102534.13;5046006;28;20399;-60
2022/08/07 08:44:48;;;;;;;24.63;13.20;;;;;;;18.11;65.86;102530.94;5048146;28;20032;-60
2022/08/07 08:47:39;;;;;;;27.05;10.95;;;;;;;18.26;63.25;102533.84;5043779;28;20029;-60
2022/08/07 08:50:42;;;;;;;23.08;11.32;;;;;;;18.40;63.09;102531.47;5048449;28;20017;-60
2022/08/07 08:53:21;;;;;;;24.10;11.50;;;;;;;18.54;62.09;102534.38;5038787;28;20043;-60
2022/08/07 08:55:53;;;;;;;18.33;9.95;;;;;;;18.64;62.62;102530.13;5044215;28;20025;-60
2022/08/07 08:58:35;;;;;;;19.65;10.23;;;;;;;18.76;61.33;102530.34;5048583;28;20090;-60
2022/08/07 09:01:20;;;;;;;21.98;9.38;;;;;;;18.83;60.07;102529.56;5048967;28;20025;-60
2022/08/07 09:04:05;;;;;;;19.33;8.70;;;;;;;18.93;60.74;102531.53;5047862;28;20021;-60
2022/08/07 09:06:52;;;;;;;22.52;9.48;;;;;;;19.05;59.07;102525.53;5048336;28;20029;-60
2022/08/07 09:09:44;;;;;;;19.90;9.38;;;;;;;19.13;58.78;102524.78;5048728;28;20037;-60
2022/08/07 09:12:25;;;;;;;17.08;9.38;;;;;;;19.28;58.10;102525.00;5044763;28;20029;-60
2022/08/07 09:15:01;;;;;;;17.52;9.13;;;;;;;19.32;58.25;102516.25;5047943;28;20032;-60
2022/08/07 09:17:36;;;;;;;20.30;9.00;;;;;;;19.46;57.62;102519.06;5038584;28;20060;-60
2022/08/07 09:20:28;;;;;;;17.75;9.43;;;;;;;19.54;58.62;102517.44;5032264;28;20031;-60
2022/08/07 09:23:03;;;;;;;20.23;9.40;;;;;;;19.68;57.93;102519.34;5037840;28;20116;-60
2022/08/07 09:25:34;;;;;;;19.98;10.40;;;;;;;19.76;55.90;102520.34;5045721;28;20209;-60
2022/08/07 09:28:04;;;;;;;17.48;8.77;;;;;;;19.90;55.23;102516.16;5042447;28;20111;-60
2022/08/07 09:30:56;;;;;;;17.65;9.15;;;;;;;19.96;56.48;102510.91;5046376;28;20403;-60
2022/08/07 09:33:43;;;;;;;19.50;10.15;;;;;;;20.02;55.59;102509.22;5049827;28;20145;-60
2022/08/07 09:36:26;;;;;;;22.02;10.07;;;;;;;20.14;54.96;102510.22;5048617;28;20017;-60
2022/08/07 09:39:10;;;;;;;20.80;10.43;;;;;;;20.27;55.43;102505.94;5048491;28;20141;-60
2022/08/07 09:41:45;;;;;;;19.35;9.95;;;;;;;20.37;53.35;102506.94;5049649;28;20041;-61
2022/08/07 09:44:15;;;;;;;18.88;9.35;;;;;;;20.47;53.84;102503.47;5049061;28;20033;-60
2022/08/07 09:47:18;;;;;;;16.88;8.68;;;;;;;20.56;53.78;102502.69;5047645;28;20035;-60
2022/08/07 09:50:18;;;;;;;16.17;9.02;;;;;;;20.65;52.06;102500.13;5042025;28;20037;-60
2022/08/07 09:52:48;;;;;;;18.77;8.57;;;;;;;20.74;52.40;102503.72;5045163;28;20032;-60
2022/08/07 09:55:21;;;;;;;16.13;8.98;;;;;;;20.87;53.43;102484.44;5048390;28;20056;-60
2022/08/07 09:57:59;;;;;;;20.48;9.23;;;;;;;21.04;54.71;102491.59;5049705;28;20029;-60
2022/08/07 10:00:31;;;;;;;20.53;9.83;;;;;;;21.11;51.03;102488.09;5048229;28;20036;-60
2022/08/07 10:03:05;;;;;;;18.45;9.63;;;;;;;21.15;49.91;102488.13;5048754;28;20032;-60
2022/08/07 10:05:49;;;;;;;17.40;8.48;;;;;;;21.23;49.89;102476.69;5036052;28;20035;-60
2022/08/07 10:08:29;;;;;;;17.10;9.20;;;;;;;21.29;50.01;102474.97;5049544;28;20496;-60
2022/08/07 10:11:07;;;;;;;13.55;7.95;;;;;;;21.34;49.55;102459.94;5030389;28;20404;-60
2022/08/07 10:13:57;;;;;;;15.73;8.27;;;;;;;21.45;49.24;102473.25;5049361;28;20074;-60
2022/08/07 10:16:37;;;;;;;16.20;8.25;;;;;;;21.55;48.46;102468.88;5048708;28;20025;-60
2022/08/07 10:19:25;;;;;;;15.00;8.38;;;;;;;21.65;48.14;102453.91;5029682;28;20086;-61
2022/08/07 10:22:14;;;;;;;17.45;8.20;;;;;;;21.73;48.26;102457.47;5043173;28;20024;-60
2022/08/07 10:24:45;;;;;;;15.15;8.02;;;;;;;21.81;47.25;102457.47;5038293;28;20132;-60
2022/08/07 10:27:45;;;;;;;15.00;7.88;;;;;;;21.86;48.47;102451.31;5049402;28;20040;-60
2022/08/07 10:30:18;;;;;;;17.27;7.80;;;;;;;21.92;47.06;102455.75;5049323;28;20408;-60
2022/08/07 10:33:13;;;;;;;18.08;8.02;;;;;;;22.00;48.45;102453.09;5047284;28;20545;-60
2022/08/07 10:35:52;;;;;;;13.40;6.47;;;;;;;22.09;47.40;102454.88;5049355;28;20044;-59
2022/08/07 10:38:29;;;;;;;14.65;7.78;;;;;;;22.19;48.20;102452.25;5049131;28;20060;-60
2022/08/07 10:41:08;;;;;;;12.52;7.70;;;;;;;22.33;49.01;102454.97;5042299;28;20069;-60
2022/08/07 10:43:41;;;;;;;15.68;7.75;;;;;;;22.51;48.42;102450.53;5049195;28;20554;-60
2022/08/07 10:46:14;;;;;;;12.50;7.05;;;;;;;22.59;46.75;102448.72;5048930;28;20399;-61
2022/08/07 10:48:54;;;;;;;12.40;7.45;;;;;;;22.68;45.43;102450.50;5036217;28;20044;-60
2022/08/07 10:51:24;;;;;;;14.45;7.30;;;;;;;22.61;44.14;102444.31;5049316;28;20075;-61
2022/08/07 10:54:18;;;;;;;14.18;7.40;;;;;;;22.69;46.51;102446.97;5033150;28;20044;-60
2022/08/07 10:57:34;;;;;;;11.93;6.50;;;;;;;22.80;48.19;102446.97;5052141;28;20048;-60
2022/08/07 11:00:06;;;;;;;13.15;7.18;;;;;;;22.93;45.10;102444.25;4963447;28;20576;-60
2022/08/07 11:02:50;;;;;;;12.40;6.88;;;;;;;22.99;44.31;102429.19;5018411;28;20029;-60
2022/08/07 11:05:36;;;;;;;13.18;7.60;;;;;;;23.05;44.72;102434.47;5051843;28;20037;-60
2022/08/07 11:08:28;;;;;;;12.95;6.80;;;;;;;23.13;45.60;102429.16;5045897;28;20025;-62
2022/08/07 11:11:01;;;;;;;13.48;7.15;;;;;;;23.24;44.58;102424.69;5052408;28;20431;-61
2022/08/07 11:13:37;;;;;;;11.60;7.03;;;;;;;23.32;45.62;102414.91;5051661;28;20070;-61
2022/08/07 11:16:18;;;;;;;12.80;6.72;;;;;;;23.44;45.76;102420.16;5052238;28;20040;-61
2022/08/07 11:18:50;;;;;;;12.48;6.53;;;;;;;23.48;42.06;102414.81;5049924;28;20411;-61
2022/08/07 11:21:33;;;;;;;10.77;6.15;;;;;;;23.53;44.36;102405.91;5052441;28;20036;-61
2022/08/07 11:24:22;;;;;;;10.90;5.95;;;;;;;23.59;42.86;102405.00;5047816;28;20029;-61
2022/08/07 11:27:03;;;;;;;9.63;5.38;;;;;;;23.71;44.30;102399.63;5052355;28;20024;-60
2022/08/07 11:30:03;;;;;;;10.02;5.40;;;;;;;23.76;42.40;102395.13;5052136;28;20024;-61
2022/08/07 11:33:00;;;;;;;9.38;5.93;;;;;;;23.80;42.40;102396.00;5050228;28;20036;-61
2022/08/07 11:35:45;;;;;;;11.60;5.38;;;;;;;23.89;42.69;102395.97;5051278;28;20117;-60
2022/08/07 11:38:18;;;;;;;9.48;5.07;;;;;;;24.02;43.86;102401.22;5051014;28;20025;-61
2022/08/07 11:41:04;;;;;;;11.38;5.82;;;;;;;24.06;42.84;102393.19;5051995;28;20052;-60
2022/08/07 11:43:40;;;;;;;9.05;5.63;;;;;;;24.21;43.44;102393.94;5051112;28;20036;-61
2022/08/07 11:46:26;;;;;;;9.35;5.50;;;;;;;24.28;42.95;102393.00;5050826;28;20035;-62